sensor_id;sensor_type;location;lat;lon;timestamp;temperature;humidity
37052;DHT22;22964;52.272;13.356;2023-04-25T00:01:05;13.00;56.90
37052;DHT22;22964;52.272;13.356;2023-04-25T00:03:31;13.00;57.00
37052;DHT22;22964;52.272;13.356;2023-04-25T00:05:58;13.00;57.00
37052;DHT22;22964;52.272;13.356;2023-04-25T00:08:28;13.00;57.00
37052;DHT22;22964;52.272;13.356;2023-04-25T00:10:54;13.00;56.90
37052;DHT22;22964;52.272;13.356;2023-04-25T00:13:20;13.00;56.80
37052;DHT22;22964;52.272;13.356;2023-04-25T00:15:46;13.00;57.70
37052;DHT22;22964;52.272;13.356;2023-04-25T00:18:14;13.10;56.90
37052;DHT22;22964;52.272;13.356;2023-04-25T00:20:40;13.00;56.80
37052;DHT22;22964;52.272;13.356;2023-04-25T00:23:05;13.10;56.80
37052;DHT22;22964;52.272;13.356;2023-04-25T00:25:31;13.10;56.90
37052;DHT22;22964;52.272;13.356;2023-04-25T00:27:57;13.10;56.90
37052;DHT22;22964;52.272;13.356;2023-04-25T00:30:23;13.10;56.80
37052;DHT22;22964;52.272;13.356;2023-04-25T00:32:49;13.00;56.70
37052;DHT22;22964;52.272;13.356;2023-04-25T00:35:15;13.00;56.70
37052;DHT22;22964;52.272;13.356;2023-04-25T00:37:41;13.10;56.70
37052;DHT22;22964;52.272;13.356;2023-04-25T00:40:07;13.00;56.40
37052;DHT22;22964;52.272;13.356;2023-04-25T00:42:34;13.00;56.70
37052;DHT22;22964;52.272;13.356;2023-04-25T00:45:01;13.00;56.80
37052;DHT22;22964;52.272;13.356;2023-04-25T00:47:28;13.00;56.70
37052;DHT22;22964;52.272;13.356;2023-04-25T00:49:54;13.00;56.90
37052;DHT22;22964;52.272;13.356;2023-04-25T00:52:20;13.00;56.70
37052;DHT22;22964;52.272;13.356;2023-04-25T00:54:46;12.90;56.70
37052;DHT22;22964;52.272;13.356;2023-04-25T00:57:12;12.90;56.60
37052;DHT22;22964;52.272;13.356;2023-04-25T00:59:38;12.90;56.50
37052;DHT22;22964;52.272;13.356;2023-04-25T01:02:04;12.90;56.80
37052;DHT22;22964;52.272;13.356;2023-04-25T01:04:30;12.90;56.80
37052;DHT22;22964;52.272;13.356;2023-04-25T01:06:56;12.90;56.60
37052;DHT22;22964;52.272;13.356;2023-04-25T01:09:23;12.90;56.70
37052;DHT22;22964;52.272;13.356;2023-04-25T01:11:49;12.90;56.70
37052;DHT22;22964;52.272;13.356;2023-04-25T01:14:16;12.90;56.70
37052;DHT22;22964;52.272;13.356;2023-04-25T01:16:42;12.90;56.70
37052;DHT22;22964;52.272;13.356;2023-04-25T01:19:09;12.90;56.80
37052;DHT22;22964;52.272;13.356;2023-04-25T01:21:38;12.90;56.80
37052;DHT22;22964;52.272;13.356;2023-04-25T01:24:04;12.90;56.80
37052;DHT22;22964;52.272;13.356;2023-04-25T01:26:31;12.90;56.50
37052;DHT22;22964;52.272;13.356;2023-04-25T01:28:57;12.90;56.50
37052;DHT22;22964;52.272;13.356;2023-04-25T01:31:24;12.90;56.60
37052;DHT22;22964;52.272;13.356;2023-04-25T01:33:50;12.90;56.50
37052;DHT22;22964;52.272;13.356;2023-04-25T01:36:17;12.90;56.50
37052;DHT22;22964;52.272;13.356;2023-04-25T01:38:43;12.90;56.40
37052;DHT22;22964;52.272;13.356;2023-04-25T01:41:09;12.90;56.40
37052;DHT22;22964;52.272;13.356;2023-04-25T01:43:35;12.90;56.60
37052;DHT22;22964;52.272;13.356;2023-04-25T01:46:01;12.90;56.50
37052;DHT22;22964;52.272;13.356;2023-04-25T01:48:27;12.90;56.40
37052;DHT22;22964;52.272;13.356;2023-04-25T01:50:53;12.90;56.40
37052;DHT22;22964;52.272;13.356;2023-04-25T01:53:19;12.90;56.50
37052;DHT22;22964;52.272;13.356;2023-04-25T01:55:45;12.80;56.30
37052;DHT22;22964;52.272;13.356;2023-04-25T01:58:14;12.80;56.60
37052;DHT22;22964;52.272;13.356;2023-04-25T02:01:03;12.90;56.40
37052;DHT22;22964;52.272;13.356;2023-04-25T02:03:37;12.80;56.30
37052;DHT22;22964;52.272;13.356;2023-04-25T02:06:06;12.80;56.30
37052;DHT22;22964;52.272;13.356;2023-04-25T02:08:36;12.80;56.30
37052;DHT22;22964;52.272;13.356;2023-04-25T02:11:03;12.80;56.30
37052;DHT22;22964;52.272;13.356;2023-04-25T02:13:35;12.80;56.40
37052;DHT22;22964;52.272;13.356;2023-04-25T02:16:34;12.80;56.30
37052;DHT22;22964;52.272;13.356;2023-04-25T02:19:01;12.70;56.20
37052;DHT22;22964;52.272;13.356;2023-04-25T02:21:29;12.70;56.30
37052;DHT22;22964;52.272;13.356;2023-04-25T02:23:56;12.70;56.50
37052;DHT22;22964;52.272;13.356;2023-04-25T02:26:22;12.70;56.80
37052;DHT22;22964;52.272;13.356;2023-04-25T02:28:50;12.70;56.70
37052;DHT22;22964;52.272;13.356;2023-04-25T02:31:18;12.60;56.60
37052;DHT22;22964;52.272;13.356;2023-04-25T02:33:44;12.60;56.60
37052;DHT22;22964;52.272;13.356;2023-04-25T02:36:10;12.70;56.80
37052;DHT22;22964;52.272;13.356;2023-04-25T02:38:36;12.70;56.80
37052;DHT22;22964;52.272;13.356;2023-04-25T02:41:03;12.70;56.70
37052;DHT22;22964;52.272;13.356;2023-04-25T02:43:28;12.70;56.80
37052;DHT22;22964;52.272;13.356;2023-04-25T02:45:55;12.60;56.70
37052;DHT22;22964;52.272;13.356;2023-04-25T02:48:21;12.60;56.80
37052;DHT22;22964;52.272;13.356;2023-04-25T02:50:48;12.60;56.90
37052;DHT22;22964;52.272;13.356;2023-04-25T02:53:13;12.60;56.80
37052;DHT22;22964;52.272;13.356;2023-04-25T02:55:45;12.60;57.00
37052;DHT22;22964;52.272;13.356;2023-04-25T02:58:11;12.70;56.90
37052;DHT22;22964;52.272;13.356;2023-04-25T03:00:44;12.60;56.80
37052;DHT22;22964;52.272;13.356;2023-04-25T03:03:10;12.70;57.00
37052;DHT22;22964;52.272;13.356;2023-04-25T03:05:36;12.70;57.00
37052;DHT22;22964;52.272;13.356;2023-04-25T03:08:02;12.70;56.80
37052;DHT22;22964;52.272;13.356;2023-04-25T03:10:30;12.70;56.80
37052;DHT22;22964;52.272;13.356;2023-04-25T03:13:00;12.70;56.80
37052;DHT22;22964;52.272;13.356;2023-04-25T03:15:26;12.70;56.80
37052;DHT22;22964;52.272;13.356;2023-04-25T03:17:52;12.70;56.60
37052;DHT22;22964;52.272;13.356;2023-04-25T03:20:17;12.70;56.70
37052;DHT22;22964;52.272;13.356;2023-04-25T03:22:43;12.70;56.70
37052;DHT22;22964;52.272;13.356;2023-04-25T03:25:10;12.70;56.70
37052;DHT22;22964;52.272;13.356;2023-04-25T03:27:35;12.70;56.70
37052;DHT22;22964;52.272;13.356;2023-04-25T03:30:02;12.70;56.70
37052;DHT22;22964;52.272;13.356;2023-04-25T03:32:28;12.70;56.60
37052;DHT22;22964;52.272;13.356;2023-04-25T03:34:54;12.70;56.70
37052;DHT22;22964;52.272;13.356;2023-04-25T03:37:22;12.70;56.80
37052;DHT22;22964;52.272;13.356;2023-04-25T03:39:48;12.70;56.70
37052;DHT22;22964;52.272;13.356;2023-04-25T03:42:14;12.70;56.80
37052;DHT22;22964;52.272;13.356;2023-04-25T03:44:42;12.70;56.80
37052;DHT22;22964;52.272;13.356;2023-04-25T03:47:08;12.70;56.70
37052;DHT22;22964;52.272;13.356;2023-04-25T03:49:34;12.70;56.80
37052;DHT22;22964;52.272;13.356;2023-04-25T03:52:02;12.60;56.80
37052;DHT22;22964;52.272;13.356;2023-04-25T03:54:33;12.70;57.00
37052;DHT22;22964;52.272;13.356;2023-04-25T03:57:06;12.60;56.90
37052;DHT22;22964;52.272;13.356;2023-04-25T03:59:35;12.60;56.90
37052;DHT22;22964;52.272;13.356;2023-04-25T04:02:01;12.60;57.00
37052;DHT22;22964;52.272;13.356;2023-04-25T04:04:28;12.60;57.00
37052;DHT22;22964;52.272;13.356;2023-04-25T04:06:53;12.60;56.90
37052;DHT22;22964;52.272;13.356;2023-04-25T04:09:25;12.60;57.00
37052;DHT22;22964;52.272;13.356;2023-04-25T04:11:52;12.60;57.00
37052;DHT22;22964;52.272;13.356;2023-04-25T04:14:18;12.60;57.00
37052;DHT22;22964;52.272;13.356;2023-04-25T04:16:46;12.60;57.00
37052;DHT22;22964;52.272;13.356;2023-04-25T04:19:12;12.60;57.10
37052;DHT22;22964;52.272;13.356;2023-04-25T04:21:42;12.60;57.20
37052;DHT22;22964;52.272;13.356;2023-04-25T04:24:09;12.60;57.20
37052;DHT22;22964;52.272;13.356;2023-04-25T04:26:47;12.60;57.20
37052;DHT22;22964;52.272;13.356;2023-04-25T04:29:29;12.60;57.20
37052;DHT22;22964;52.272;13.356;2023-04-25T04:31:59;12.60;57.30
37052;DHT22;22964;52.272;13.356;2023-04-25T04:34:26;12.60;57.30
37052;DHT22;22964;52.272;13.356;2023-04-25T04:36:52;12.60;57.50
37052;DHT22;22964;52.272;13.356;2023-04-25T04:39:19;12.60;57.40
37052;DHT22;22964;52.272;13.356;2023-04-25T04:41:59;12.60;57.40
37052;DHT22;22964;52.272;13.356;2023-04-25T04:45:00;12.60;57.40
37052;DHT22;22964;52.272;13.356;2023-04-25T04:47:59;12.70;57.30
37052;DHT22;22964;52.272;13.356;2023-04-25T04:50:43;12.70;57.50
37052;DHT22;22964;52.272;13.356;2023-04-25T04:53:33;12.70;57.50
37052;DHT22;22964;52.272;13.356;2023-04-25T04:56:22;12.70;57.50
37052;DHT22;22964;52.272;13.356;2023-04-25T04:59:07;12.70;57.40
37052;DHT22;22964;52.272;13.356;2023-04-25T05:01:33;12.70;57.30
37052;DHT22;22964;52.272;13.356;2023-04-25T05:04:20;12.70;57.50
37052;DHT22;22964;52.272;13.356;2023-04-25T05:07:04;12.70;57.60
37052;DHT22;22964;52.272;13.356;2023-04-25T05:10:06;12.70;57.70
37052;DHT22;22964;52.272;13.356;2023-04-25T05:12:43;12.80;57.90
37052;DHT22;22964;52.272;13.356;2023-04-25T05:15:31;12.80;57.90
37052;DHT22;22964;52.272;13.356;2023-04-25T05:18:17;12.80;57.70
37052;DHT22;22964;52.272;13.356;2023-04-25T05:21:02;12.80;57.70
37052;DHT22;22964;52.272;13.356;2023-04-25T05:23:55;12.80;57.80
37052;DHT22;22964;52.272;13.356;2023-04-25T05:26:40;12.80;57.90
37052;DHT22;22964;52.272;13.356;2023-04-25T05:29:24;12.80;57.70
37052;DHT22;22964;52.272;13.356;2023-04-25T05:32:00;12.80;58.00
37052;DHT22;22964;52.272;13.356;2023-04-25T05:34:26;12.80;58.00
37052;DHT22;22964;52.272;13.356;2023-04-25T05:37:00;12.80;58.20
37052;DHT22;22964;52.272;13.356;2023-04-25T05:39:28;12.80;58.10
37052;DHT22;22964;52.272;13.356;2023-04-25T05:42:10;12.80;58.10
37052;DHT22;22964;52.272;13.356;2023-04-25T05:45:03;12.80;58.10
37052;DHT22;22964;52.272;13.356;2023-04-25T05:47:47;12.80;58.20
37052;DHT22;22964;52.272;13.356;2023-04-25T05:50:18;12.90;58.40
37052;DHT22;22964;52.272;13.356;2023-04-25T05:53:03;12.80;58.30
37052;DHT22;22964;52.272;13.356;2023-04-25T05:55:49;12.90;58.50
37052;DHT22;22964;52.272;13.356;2023-04-25T05:58:20;12.90;58.30
37052;DHT22;22964;52.272;13.356;2023-04-25T06:00:46;13.00;58.30
37052;DHT22;22964;52.272;13.356;2023-04-25T06:03:12;13.00;58.50
37052;DHT22;22964;52.272;13.356;2023-04-25T06:05:42;13.00;59.10
37052;DHT22;22964;52.272;13.356;2023-04-25T06:08:08;13.00;58.30
37052;DHT22;22964;52.272;13.356;2023-04-25T06:10:37;13.00;58.10
37052;DHT22;22964;52.272;13.356;2023-04-25T06:13:03;13.10;58.10
37052;DHT22;22964;52.272;13.356;2023-04-25T06:15:31;13.10;58.80
37052;DHT22;22964;52.272;13.356;2023-04-25T06:18:00;13.10;58.20
37052;DHT22;22964;52.272;13.356;2023-04-25T06:20:26;13.10;58.20
37052;DHT22;22964;52.272;13.356;2023-04-25T06:22:54;13.20;58.30
37052;DHT22;22964;52.272;13.356;2023-04-25T06:25:27;13.20;58.40
37052;DHT22;22964;52.272;13.356;2023-04-25T06:27:54;13.20;58.60
37052;DHT22;22964;52.272;13.356;2023-04-25T06:30:20;13.30;58.70
37052;DHT22;22964;52.272;13.356;2023-04-25T06:32:54;13.40;58.70
37052;DHT22;22964;52.272;13.356;2023-04-25T06:35:21;13.40;58.60
37052;DHT22;22964;52.272;13.356;2023-04-25T06:37:47;13.50;58.60
37052;DHT22;22964;52.272;13.356;2023-04-25T06:40:13;13.60;58.50
37052;DHT22;22964;52.272;13.356;2023-04-25T06:42:38;13.70;58.30
37052;DHT22;22964;52.272;13.356;2023-04-25T06:45:32;13.70;58.10
37052;DHT22;22964;52.272;13.356;2023-04-25T06:47:58;13.80;57.80
37052;DHT22;22964;52.272;13.356;2023-04-25T06:50:23;13.80;57.60
37052;DHT22;22964;52.272;13.356;2023-04-25T06:52:49;13.80;57.50
37052;DHT22;22964;52.272;13.356;2023-04-25T06:55:17;13.80;57.40
37052;DHT22;22964;52.272;13.356;2023-04-25T06:58:06;13.80;57.30
37052;DHT22;22964;52.272;13.356;2023-04-25T07:00:51;13.80;57.50
37052;DHT22;22964;52.272;13.356;2023-04-25T07:03:19;13.90;57.50
37052;DHT22;22964;52.272;13.356;2023-04-25T07:05:45;13.90;57.40
37052;DHT22;22964;52.272;13.356;2023-04-25T07:08:12;13.90;57.40
37052;DHT22;22964;52.272;13.356;2023-04-25T07:10:37;13.90;57.60
37052;DHT22;22964;52.272;13.356;2023-04-25T07:13:03;14.00;57.50
37052;DHT22;22964;52.272;13.356;2023-04-25T07:15:30;13.90;57.40
37052;DHT22;22964;52.272;13.356;2023-04-25T07:17:57;14.00;57.30
37052;DHT22;22964;52.272;13.356;2023-04-25T07:20:23;14.00;58.00
37052;DHT22;22964;52.272;13.356;2023-04-25T07:22:49;14.00;57.30
37052;DHT22;22964;52.272;13.356;2023-04-25T07:25:16;14.00;57.20
37052;DHT22;22964;52.272;13.356;2023-04-25T07:27:42;14.00;57.00
37052;DHT22;22964;52.272;13.356;2023-04-25T07:30:14;14.00;56.90
37052;DHT22;22964;52.272;13.356;2023-04-25T07:32:40;14.00;56.90
37052;DHT22;22964;52.272;13.356;2023-04-25T07:35:06;14.00;56.90
37052;DHT22;22964;52.272;13.356;2023-04-25T07:37:36;13.90;56.80
37052;DHT22;22964;52.272;13.356;2023-04-25T07:40:14;13.90;57.00
37052;DHT22;22964;52.272;13.356;2023-04-25T07:42:54;13.90;57.00
37052;DHT22;22964;52.272;13.356;2023-04-25T07:45:32;13.90;56.90
37052;DHT22;22964;52.272;13.356;2023-04-25T07:47:58;13.80;57.00
37052;DHT22;22964;52.272;13.356;2023-04-25T07:50:24;13.80;57.00
37052;DHT22;22964;52.272;13.356;2023-04-25T07:52:50;13.70;56.90
37052;DHT22;22964;52.272;13.356;2023-04-25T07:55:22;13.70;56.90
37052;DHT22;22964;52.272;13.356;2023-04-25T07:58:09;13.60;56.50
37052;DHT22;22964;52.272;13.356;2023-04-25T08:00:37;13.60;56.40
37052;DHT22;22964;52.272;13.356;2023-04-25T08:03:36;13.50;56.50
37052;DHT22;22964;52.272;13.356;2023-04-25T08:06:06;13.50;57.00
37052;DHT22;22964;52.272;13.356;2023-04-25T08:08:37;13.40;57.30
37052;DHT22;22964;52.272;13.356;2023-04-25T08:11:05;13.30;57.60
37052;DHT22;22964;52.272;13.356;2023-04-25T08:13:31;13.30;57.90
37052;DHT22;22964;52.272;13.356;2023-04-25T08:15:58;13.30;57.90
37052;DHT22;22964;52.272;13.356;2023-04-25T08:18:23;13.20;58.40
37052;DHT22;22964;52.272;13.356;2023-04-25T08:20:50;13.20;58.50
37052;DHT22;22964;52.272;13.356;2023-04-25T08:23:16;13.20;58.40
37052;DHT22;22964;52.272;13.356;2023-04-25T08:25:41;13.20;58.70
37052;DHT22;22964;52.272;13.356;2023-04-25T08:28:10;13.20;58.60
37052;DHT22;22964;52.272;13.356;2023-04-25T08:30:36;13.20;58.70
37052;DHT22;22964;52.272;13.356;2023-04-25T08:33:03;13.20;58.80
37052;DHT22;22964;52.272;13.356;2023-04-25T08:35:48;13.10;58.80
37052;DHT22;22964;52.272;13.356;2023-04-25T08:38:15;13.10;59.10
37052;DHT22;22964;52.272;13.356;2023-04-25T08:40:41;13.10;59.30
37052;DHT22;22964;52.272;13.356;2023-04-25T08:43:16;13.10;59.60
37052;DHT22;22964;52.272;13.356;2023-04-25T08:45:43;13.10;59.70
37052;DHT22;22964;52.272;13.356;2023-04-25T08:48:17;13.10;59.80
37052;DHT22;22964;52.272;13.356;2023-04-25T08:50:54;13.10;59.40
37052;DHT22;22964;52.272;13.356;2023-04-25T08:53:25;13.10;59.40
37052;DHT22;22964;52.272;13.356;2023-04-25T08:55:56;13.20;60.00
37052;DHT22;22964;52.272;13.356;2023-04-25T08:58:23;13.20;59.50
37052;DHT22;22964;52.272;13.356;2023-04-25T09:00:50;13.20;59.20
37052;DHT22;22964;52.272;13.356;2023-04-25T09:03:18;13.30;59.20
37052;DHT22;22964;52.272;13.356;2023-04-25T09:05:46;13.30;59.20
37052;DHT22;22964;52.272;13.356;2023-04-25T09:08:14;13.40;59.10
37052;DHT22;22964;52.272;13.356;2023-04-25T09:10:40;13.40;58.90
37052;DHT22;22964;52.272;13.356;2023-04-25T09:13:08;13.50;58.70
37052;DHT22;22964;52.272;13.356;2023-04-25T09:16:11;13.50;58.50
37052;DHT22;22964;52.272;13.356;2023-04-25T09:18:48;13.60;58.20
37052;DHT22;22964;52.272;13.356;2023-04-25T09:21:16;13.70;57.90
37052;DHT22;22964;52.272;13.356;2023-04-25T09:23:47;13.80;57.70
37052;DHT22;22964;52.272;13.356;2023-04-25T09:26:15;13.80;57.60
37052;DHT22;22964;52.272;13.356;2023-04-25T09:28:43;13.90;57.60
37052;DHT22;22964;52.272;13.356;2023-04-25T09:31:12;14.10;58.20
37052;DHT22;22964;52.272;13.356;2023-04-25T09:33:46;14.20;57.10
37052;DHT22;22964;52.272;13.356;2023-04-25T09:36:12;14.40;56.80
37052;DHT22;22964;52.272;13.356;2023-04-25T09:38:56;14.50;55.90
37052;DHT22;22964;52.272;13.356;2023-04-25T09:41:26;14.70;54.80
37052;DHT22;22964;52.272;13.356;2023-04-25T09:43:57;14.80;54.40
37052;DHT22;22964;52.272;13.356;2023-04-25T09:46:34;14.90;54.30
37052;DHT22;22964;52.272;13.356;2023-04-25T09:49:06;15.00;53.70
37052;DHT22;22964;52.272;13.356;2023-04-25T09:51:40;15.10;52.40
37052;DHT22;22964;52.272;13.356;2023-04-25T09:54:06;15.10;51.60
37052;DHT22;22964;52.272;13.356;2023-04-25T09:56:36;15.10;51.40
37052;DHT22;22964;52.272;13.356;2023-04-25T09:59:05;15.20;52.00
37052;DHT22;22964;52.272;13.356;2023-04-25T10:01:35;15.20;51.40
37052;DHT22;22964;52.272;13.356;2023-04-25T10:04:14;15.20;51.00
37052;DHT22;22964;52.272;13.356;2023-04-25T10:06:48;15.20;51.10
37052;DHT22;22964;52.272;13.356;2023-04-25T10:09:16;15.20;51.30
37052;DHT22;22964;52.272;13.356;2023-04-25T10:11:46;15.20;51.20
37052;DHT22;22964;52.272;13.356;2023-04-25T10:14:14;15.10;50.40
37052;DHT22;22964;52.272;13.356;2023-04-25T10:16:41;15.10;50.60
37052;DHT22;22964;52.272;13.356;2023-04-25T10:19:07;15.10;50.30
37052;DHT22;22964;52.272;13.356;2023-04-25T10:21:33;15.10;50.30
37052;DHT22;22964;52.272;13.356;2023-04-25T10:24:01;15.10;50.50
37052;DHT22;22964;52.272;13.356;2023-04-25T10:26:27;15.10;50.90
37052;DHT22;22964;52.272;13.356;2023-04-25T10:29:01;15.10;50.30
37052;DHT22;22964;52.272;13.356;2023-04-25T10:31:27;15.10;49.80
37052;DHT22;22964;52.272;13.356;2023-04-25T10:33:54;15.10;50.50
37052;DHT22;22964;52.272;13.356;2023-04-25T10:36:22;15.20;50.10
37052;DHT22;22964;52.272;13.356;2023-04-25T10:38:49;15.20;49.60
37052;DHT22;22964;52.272;13.356;2023-04-25T10:41:20;15.20;49.80
37052;DHT22;22964;52.272;13.356;2023-04-25T10:43:47;15.20;49.00
37052;DHT22;22964;52.272;13.356;2023-04-25T10:46:27;15.20;48.50
37052;DHT22;22964;52.272;13.356;2023-04-25T10:48:59;15.20;48.80
37052;DHT22;22964;52.272;13.356;2023-04-25T10:51:33;15.30;48.90
37052;DHT22;22964;52.272;13.356;2023-04-25T10:54:00;15.30;49.10
37052;DHT22;22964;52.272;13.356;2023-04-25T10:56:28;15.30;49.40
37052;DHT22;22964;52.272;13.356;2023-04-25T10:59:14;15.30;48.80
37052;DHT22;22964;52.272;13.356;2023-04-25T11:01:43;15.30;48.20
37052;DHT22;22964;52.272;13.356;2023-04-25T11:04:22;15.40;49.10
37052;DHT22;22964;52.272;13.356;2023-04-25T11:07:03;15.50;48.70
37052;DHT22;22964;52.272;13.356;2023-04-25T11:09:34;15.50;48.00
37052;DHT22;22964;52.272;13.356;2023-04-25T11:12:00;15.60;48.80
37052;DHT22;22964;52.272;13.356;2023-04-25T11:14:26;15.50;48.60
37052;DHT22;22964;52.272;13.356;2023-04-25T11:16:53;15.60;48.00
37052;DHT22;22964;52.272;13.356;2023-04-25T11:19:20;15.50;47.70
37052;DHT22;22964;52.272;13.356;2023-04-25T11:21:46;15.50;47.50
37052;DHT22;22964;52.272;13.356;2023-04-25T11:24:11;15.40;47.00
37052;DHT22;22964;52.272;13.356;2023-04-25T11:26:37;15.40;47.50
37052;DHT22;22964;52.272;13.356;2023-04-25T11:29:03;15.30;47.60
37052;DHT22;22964;52.272;13.356;2023-04-25T11:31:29;15.30;47.20
37052;DHT22;22964;52.272;13.356;2023-04-25T11:33:58;15.20;46.90
37052;DHT22;22964;52.272;13.356;2023-04-25T11:36:24;15.20;46.20
37052;DHT22;22964;52.272;13.356;2023-04-25T11:38:52;15.20;47.20
37052;DHT22;22964;52.272;13.356;2023-04-25T11:41:19;15.10;47.20
37052;DHT22;22964;52.272;13.356;2023-04-25T11:43:45;15.20;46.80
37052;DHT22;22964;52.272;13.356;2023-04-25T11:46:11;15.10;46.90
37052;DHT22;22964;52.272;13.356;2023-04-25T11:48:39;15.10;47.20
37052;DHT22;22964;52.272;13.356;2023-04-25T11:51:04;15.10;46.80
37052;DHT22;22964;52.272;13.356;2023-04-25T11:53:30;15.10;47.10
37052;DHT22;22964;52.272;13.356;2023-04-25T11:55:56;15.10;46.70
37052;DHT22;22964;52.272;13.356;2023-04-25T11:58:22;15.10;46.60
37052;DHT22;22964;52.272;13.356;2023-04-25T12:00:47;15.10;46.90
37052;DHT22;22964;52.272;13.356;2023-04-25T12:03:13;15.10;46.90
37052;DHT22;22964;52.272;13.356;2023-04-25T12:05:40;15.00;46.40
37052;DHT22;22964;52.272;13.356;2023-04-25T12:08:13;14.90;46.30
37052;DHT22;22964;52.272;13.356;2023-04-25T12:10:40;14.90;45.90
37052;DHT22;22964;52.272;13.356;2023-04-25T12:13:23;14.80;45.90
37052;DHT22;22964;52.272;13.356;2023-04-25T12:15:50;14.80;46.10
37052;DHT22;22964;52.272;13.356;2023-04-25T12:18:25;14.80;46.00
37052;DHT22;22964;52.272;13.356;2023-04-25T12:20:53;14.70;45.90
37052;DHT22;22964;52.272;13.356;2023-04-25T12:23:26;14.70;45.60
37052;DHT22;22964;52.272;13.356;2023-04-25T12:25:54;14.80;46.10
37052;DHT22;22964;52.272;13.356;2023-04-25T12:28:22;14.80;46.50
37052;DHT22;22964;52.272;13.356;2023-04-25T12:33:18;15.00;46.80
37052;DHT22;22964;52.272;13.356;2023-04-25T12:35:44;15.00;47.10
37052;DHT22;22964;52.272;13.356;2023-04-25T12:38:10;15.10;46.60
37052;DHT22;22964;52.272;13.356;2023-04-25T12:40:36;15.20;46.80
37052;DHT22;22964;52.272;13.356;2023-04-25T12:43:01;15.30;46.50
37052;DHT22;22964;52.272;13.356;2023-04-25T12:45:27;15.40;46.60
37052;DHT22;22964;52.272;13.356;2023-04-25T12:47:53;15.50;46.20
37052;DHT22;22964;52.272;13.356;2023-04-25T12:50:18;15.60;45.40
37052;DHT22;22964;52.272;13.356;2023-04-25T12:52:44;15.60;44.50
37052;DHT22;22964;52.272;13.356;2023-04-25T12:55:10;15.60;44.80
37052;DHT22;22964;52.272;13.356;2023-04-25T12:57:36;15.70;44.80
37052;DHT22;22964;52.272;13.356;2023-04-25T13:00:02;15.80;45.40
37052;DHT22;22964;52.272;13.356;2023-04-25T13:02:29;15.90;44.60
37052;DHT22;22964;52.272;13.356;2023-04-25T13:04:55;15.90;44.80
37052;DHT22;22964;52.272;13.356;2023-04-25T13:07:20;15.90;44.60
37052;DHT22;22964;52.272;13.356;2023-04-25T13:09:46;15.90;44.30
37052;DHT22;22964;52.272;13.356;2023-04-25T13:12:12;15.90;43.90
37052;DHT22;22964;52.272;13.356;2023-04-25T13:14:38;15.80;44.00
37052;DHT22;22964;52.272;13.356;2023-04-25T13:17:03;15.80;44.00
37052;DHT22;22964;52.272;13.356;2023-04-25T13:19:29;15.70;43.80
37052;DHT22;22964;52.272;13.356;2023-04-25T13:21:55;15.70;44.10
37052;DHT22;22964;52.272;13.356;2023-04-25T13:24:20;15.60;44.20
37052;DHT22;22964;52.272;13.356;2023-04-25T13:26:46;15.50;43.10
37052;DHT22;22964;52.272;13.356;2023-04-25T13:29:12;15.40;43.40
37052;DHT22;22964;52.272;13.356;2023-04-25T13:31:38;15.30;43.80
37052;DHT22;22964;52.272;13.356;2023-04-25T13:34:03;15.20;44.20
37052;DHT22;22964;52.272;13.356;2023-04-25T13:36:29;15.20;44.30
37052;DHT22;22964;52.272;13.356;2023-04-25T13:38:55;15.10;44.30
37052;DHT22;22964;52.272;13.356;2023-04-25T13:41:21;15.10;44.50
37052;DHT22;22964;52.272;13.356;2023-04-25T13:43:47;15.10;44.90
37052;DHT22;22964;52.272;13.356;2023-04-25T13:46:13;15.10;45.40
37052;DHT22;22964;52.272;13.356;2023-04-25T13:48:40;15.10;45.60
37052;DHT22;22964;52.272;13.356;2023-04-25T13:51:12;15.20;45.30
37052;DHT22;22964;52.272;13.356;2023-04-25T13:53:37;15.20;45.10
37052;DHT22;22964;52.272;13.356;2023-04-25T13:56:04;15.30;45.90
37052;DHT22;22964;52.272;13.356;2023-04-25T13:58:30;15.40;45.00
37052;DHT22;22964;52.272;13.356;2023-04-25T14:00:56;15.60;45.60
37052;DHT22;22964;52.272;13.356;2023-04-25T14:03:21;15.60;44.90
37052;DHT22;22964;52.272;13.356;2023-04-25T14:05:47;15.80;44.50
37052;DHT22;22964;52.272;13.356;2023-04-25T14:08:13;15.80;44.40
37052;DHT22;22964;52.272;13.356;2023-04-25T14:10:38;15.90;44.40
37052;DHT22;22964;52.272;13.356;2023-04-25T14:13:04;16.00;44.40
37052;DHT22;22964;52.272;13.356;2023-04-25T14:15:33;16.10;43.00
37052;DHT22;22964;52.272;13.356;2023-04-25T14:18:00;16.10;43.10
37052;DHT22;22964;52.272;13.356;2023-04-25T14:20:26;16.10;42.40
37052;DHT22;22964;52.272;13.356;2023-04-25T14:22:52;16.10;43.10
37052;DHT22;22964;52.272;13.356;2023-04-25T14:25:20;16.00;42.70
37052;DHT22;22964;52.272;13.356;2023-04-25T14:27:46;15.90;42.40
37052;DHT22;22964;52.272;13.356;2023-04-25T14:30:16;15.80;43.00
37052;DHT22;22964;52.272;13.356;2023-04-25T14:32:42;15.80;42.80
37052;DHT22;22964;52.272;13.356;2023-04-25T14:35:08;15.70;42.90
37052;DHT22;22964;52.272;13.356;2023-04-25T14:37:34;15.60;43.10
37052;DHT22;22964;52.272;13.356;2023-04-25T14:40:00;15.50;43.40
37052;DHT22;22964;52.272;13.356;2023-04-25T14:42:25;15.50;43.00
37052;DHT22;22964;52.272;13.356;2023-04-25T14:44:51;15.40;43.30
37052;DHT22;22964;52.272;13.356;2023-04-25T14:47:17;15.30;43.60
37052;DHT22;22964;52.272;13.356;2023-04-25T14:49:43;15.20;43.80
37052;DHT22;22964;52.272;13.356;2023-04-25T14:52:09;15.20;43.70
37052;DHT22;22964;52.272;13.356;2023-04-25T14:54:34;15.10;43.90
37052;DHT22;22964;52.272;13.356;2023-04-25T14:57:00;15.00;44.10
37052;DHT22;22964;52.272;13.356;2023-04-25T14:59:26;15.00;44.10
37052;DHT22;22964;52.272;13.356;2023-04-25T15:01:53;14.90;44.60
37052;DHT22;22964;52.272;13.356;2023-04-25T15:04:20;14.80;44.60
37052;DHT22;22964;52.272;13.356;2023-04-25T15:06:46;14.80;44.80
37052;DHT22;22964;52.272;13.356;2023-04-25T15:09:12;14.90;44.80
37052;DHT22;22964;52.272;13.356;2023-04-25T15:11:38;14.80;44.90
37052;DHT22;22964;52.272;13.356;2023-04-25T15:14:04;14.80;44.80
37052;DHT22;22964;52.272;13.356;2023-04-25T15:16:29;14.90;44.80
37052;DHT22;22964;52.272;13.356;2023-04-25T15:18:56;14.90;44.70
37052;DHT22;22964;52.272;13.356;2023-04-25T15:21:21;14.80;44.60
37052;DHT22;22964;52.272;13.356;2023-04-25T15:23:47;14.80;44.70
37052;DHT22;22964;52.272;13.356;2023-04-25T15:26:13;14.90;45.10
37052;DHT22;22964;52.272;13.356;2023-04-25T15:28:39;14.90;45.20
37052;DHT22;22964;52.272;13.356;2023-04-25T15:31:04;14.90;45.30